YGEL

Geraldton Airport

Australia
TAF YGEL 221038Z 2212/2306 20016KT 9999 -SHRA BKN025 BECMG 2223/2301 23017KT 9999 -SHRA BKN025 INTER 2212/2218 5000 SHRA SCT015
Issued Valid From Valid To
Jan-22 @ 10:38 UTC
(6 hours ago)
Jan-22 @ 12:00 UTC
(5 hours ago)
Jan-23 @ 06:00 UTC
(in 13 hours)
Jan-22 @ 12:00 to Jan-22 @ 23:00
TAF YGEL 221038Z 2212/2306 20016KT 9999 -SHRA BKN025
Wind Visibility Clouds Conditions
200° at 16 knots 10,000+ meters
  • Broken at 2,500' AGL
  • Light Rain
Temporary Jan-22 @ 12:00 to Jan-22 @ 18:00
INTER 2212/2218 5000 SHRA SCT015
Visibility Clouds Conditions
5,005 meters
  • Scattered at 1,500' AGL
  • Rain
Becoming Jan-22 @ 23:00 to Jan-23 @ 06:00
BECMG 2223/2301 23017KT 9999 -SHRA BKN025
Wind Visibility Clouds Conditions
230° at 17 knots 10,000+ meters
  • Broken at 2,500' AGL
  • Light Rain
TAF YGEL 221038Z 2212/2306 20016KT 9999 -SHRA BKN025 BECMG 2223/2301 23017KT 9999 -SHRA BKN025 INTER 2212/2218 5000 SHRA SCT015
Issued Jan-22 @ 10:38 UTC
(6 hours ago)
Valid From Jan-22 @ 12:00 UTC
(5 hours ago)
Valid To Jan-23 @ 06:00 UTC
(in 13 hours)
Jan-22 @ 12:00 - Jan-22 @ 23:00
Wind Visibility
200° at 16 knots 10,000+ meters
Clouds
  • Broken at 2,500' AGL
Conditions
  • Light Rain
Temporary Jan-22 @ 12:00 - Jan-22 @ 18:00
Clouds
  • Scattered at 1,500' AGL
Conditions
  • Rain
Becoming Jan-22 @ 23:00 - Jan-23 @ 06:00
Wind Visibility
230° at 17 knots 10,000+ meters
Clouds
  • Broken at 2,500' AGL
Conditions
  • Light Rain